Terminal Aerodrome Forecast
Issued by NWS

Home | Current Version | Previous Version | Text Only | Print | Product List | Glossary On
Versions: 1 2 3 4 5 6 7 8 9 10 11 12 13 14
000
FTUS43 KSGF 040520
TAFJLN
TAF
KJLN 040520Z 0406/0506 18004KT P6SM SCT250
     FM041500 19007KT P6SM SCT200
     FM042000 22008KT P6SM VCTS SCT060CB BKN200
     FM050000 17007KT P6SM SCT060 BKN150 PROB30 0500/0505 4SM TSRA
      BR BKN040CB=

USA.gov is the U.S. government's official web portal to all federal, state and local government web resources and services.